PAL106 RPLL-RPMR
Flight info
| Callsign | PAL106 |
|---|---|
| Flight time | 1h 26m |
| Altitude | 40000 |
| Route | VERDE2R VERDE A461 SAJ W3 IOO B472 COT W19 MELBY MELBY3R |
| Aircraft | A359/H-SDE2E3GHIJ3J4J5LM1ORWXY/LB1D1 |
Departure
| Time | 2026-04-16 07:42 |
|---|---|
| Airport | Ninoy Aquino International Airport (RPLL) |
Arrival
| Time | 2026-04-16 09:08 |
|---|---|
| Airport | General Santos International Airport (RPMR) |
| Time | Latitude | Longitude | Altitude | Speed | Heading |
|---|---|---|---|---|---|
| 2026-04-16 07:08 | 14.50358 | 121.00361 | 75 ft | 0 kts | 50° |
| 2026-04-16 07:25 | 14.50347 | 121.00349 | 61 ft | 2 kts | 41° |
| 2026-04-16 07:25 | 14.50333 | 121.00339 | 71 ft | 2 kts | 26° |
| 2026-04-16 07:25 | 14.50318 | 121.00333 | 64 ft | 2 kts | 37° |
| 2026-04-16 07:26 | 14.50310 | 121.00319 | 64 ft | 2 kts | 89° |
| 2026-04-16 07:26 | 14.50312 | 121.00302 | 64 ft | 2 kts | 115° |
| 2026-04-16 07:26 | 14.50322 | 121.00288 | 64 ft | 2 kts | 143° |
| 2026-04-16 07:26 | 14.50332 | 121.00282 | 64 ft | 1 kts | 173° |
| 2026-04-16 07:35 | 14.50326 | 121.00282 | 64 ft | 4 kts | 179° |
| 2026-04-16 07:35 | 14.50270 | 121.00280 | 68 ft | 11 kts | 176° |
| 2026-04-16 07:35 | 14.50187 | 121.00319 | 67 ft | 14 kts | 151° |
| 2026-04-16 07:36 | 14.50152 | 121.00382 | 65 ft | 9 kts | 78° |
| 2026-04-16 07:36 | 14.50189 | 121.00458 | 72 ft | 15 kts | 61° |
| 2026-04-16 07:36 | 14.50251 | 121.00570 | 65 ft | 20 kts | 59° |
| 2026-04-16 07:36 | 14.50330 | 121.00712 | 67 ft | 25 kts | 60° |
| 2026-04-16 07:37 | 14.50419 | 121.00871 | 65 ft | 17 kts | 60° |
| 2026-04-16 07:37 | 14.50470 | 121.00962 | 68 ft | 17 kts | 61° |
| 2026-04-16 07:37 | 14.50538 | 121.01085 | 65 ft | 22 kts | 60° |
| 2026-04-16 07:37 | 14.50622 | 121.01236 | 66 ft | 26 kts | 60° |
| 2026-04-16 07:38 | 14.50721 | 121.01413 | 66 ft | 30 kts | 60° |
| 2026-04-16 07:38 | 14.50816 | 121.01586 | 67 ft | 22 kts | 60° |
| 2026-04-16 07:38 | 14.50899 | 121.01733 | 65 ft | 25 kts | 60° |
| 2026-04-16 07:38 | 14.50985 | 121.01889 | 66 ft | 24 kts | 60° |
| 2026-04-16 07:39 | 14.51078 | 121.02054 | 64 ft | 28 kts | 60° |
| 2026-04-16 07:39 | 14.51178 | 121.02235 | 67 ft | 29 kts | 60° |
| 2026-04-16 07:39 | 14.51274 | 121.02407 | 67 ft | 27 kts | 60° |
| 2026-04-16 07:39 | 14.51373 | 121.02586 | 66 ft | 31 kts | 60° |
| 2026-04-16 07:40 | 14.51449 | 121.02720 | 64 ft | 16 kts | 60° |
| 2026-04-16 07:40 | 14.51493 | 121.02826 | 71 ft | 9 kts | 98° |
| 2026-04-16 07:40 | 14.51486 | 121.02840 | 69 ft | 0 kts | 126° |
| 2026-04-16 07:41 | 14.51471 | 121.02856 | 65 ft | 7 kts | 139° |
| 2026-04-16 07:41 | 14.51405 | 121.02880 | 65 ft | 13 kts | 185° |
| 2026-04-16 07:41 | 14.51351 | 121.02824 | 63 ft | 8 kts | 238° |
| 2026-04-16 07:42 | 14.51211 | 121.02575 | 67 ft | 80 kts | 240° |
| 2026-04-16 07:42 | 14.50808 | 121.01848 | 70 ft | 151 kts | 240° |
| 2026-04-16 07:42 | 14.50182 | 121.00772 | 379 ft | 187 kts | 239° |
| 2026-04-16 07:42 | 14.49477 | 120.99609 | 1244 ft | 188 kts | 239° |
| 2026-04-16 07:43 | 14.48806 | 120.98372 | 1950 ft | 212 kts | 240° |
| 2026-04-16 07:43 | 14.48027 | 120.96926 | 2398 ft | 246 kts | 239° |
| 2026-04-16 07:43 | 14.47181 | 120.95378 | 3102 ft | 254 kts | 239° |
| 2026-04-16 07:43 | 14.46291 | 120.93763 | 3685 ft | 263 kts | 239° |
| 2026-04-16 07:44 | 14.45371 | 120.92100 | 4299 ft | 269 kts | 239° |
| 2026-04-16 07:44 | 14.44407 | 120.90421 | 4966 ft | 273 kts | 236° |
| 2026-04-16 07:44 | 14.43092 | 120.89001 | 5617 ft | 276 kts | 211° |
| 2026-04-16 07:44 | 14.41300 | 120.88369 | 6311 ft | 274 kts | 182° |
| 2026-04-16 07:45 | 14.39399 | 120.88455 | 6957 ft | 275 kts | 171° |
| 2026-04-16 07:45 | 14.37486 | 120.88679 | 7557 ft | 279 kts | 172° |
| 2026-04-16 07:45 | 14.35638 | 120.88898 | 8157 ft | 281 kts | 171° |
| 2026-04-16 07:45 | 14.33684 | 120.89164 | 8800 ft | 284 kts | 170° |
| 2026-04-16 07:46 | 14.31711 | 120.89463 | 9424 ft | 288 kts | 169° |
| 2026-04-16 07:46 | 14.29717 | 120.89791 | 9999 ft | 292 kts | 168° |
| 2026-04-16 07:46 | 14.27679 | 120.90161 | 10360 ft | 303 kts | 168° |
| 2026-04-16 07:46 | 14.25550 | 120.90553 | 10595 ft | 319 kts | 168° |
| 2026-04-16 07:47 | 14.23315 | 120.90961 | 10838 ft | 333 kts | 168° |
| 2026-04-16 07:47 | 14.20987 | 120.91372 | 11107 ft | 344 kts | 168° |
| 2026-04-16 07:47 | 14.18604 | 120.91775 | 11506 ft | 350 kts | 171° |
| 2026-04-16 07:47 | 14.16207 | 120.92100 | 11945 ft | 354 kts | 173° |
| 2026-04-16 07:48 | 14.13740 | 120.92392 | 12368 ft | 358 kts | 173° |
| 2026-04-16 07:48 | 14.11251 | 120.92706 | 12783 ft | 361 kts | 172° |
| 2026-04-16 07:48 | 14.08748 | 120.93058 | 13194 ft | 365 kts | 171° |
| 2026-04-16 07:48 | 14.06248 | 120.93440 | 13577 ft | 369 kts | 171° |
| 2026-04-16 07:49 | 14.03704 | 120.93856 | 13964 ft | 372 kts | 170° |
| 2026-04-16 07:49 | 14.01137 | 120.94291 | 14325 ft | 375 kts | 170° |
| 2026-04-16 07:49 | 13.98551 | 120.94735 | 14682 ft | 378 kts | 170° |
| 2026-04-16 07:49 | 13.95959 | 120.95179 | 14837 ft | 379 kts | 170° |
| 2026-04-16 07:50 | 13.93352 | 120.95624 | 14866 ft | 380 kts | 170° |
| 2026-04-16 07:50 | 13.90744 | 120.96068 | 14867 ft | 381 kts | 170° |
| 2026-04-16 07:50 | 13.89008 | 120.96362 | 14863 ft | 381 kts | 170° |
| 2026-04-16 07:50 | 13.85537 | 120.96949 | 14866 ft | 381 kts | 170° |
| 2026-04-16 07:51 | 13.82915 | 120.97392 | 14867 ft | 381 kts | 170° |
| 2026-04-16 07:51 | 13.81150 | 120.97690 | 14865 ft | 381 kts | 170° |
| 2026-04-16 07:51 | 13.78527 | 120.98134 | 14865 ft | 381 kts | 170° |
| 2026-04-16 07:51 | 13.75910 | 120.98577 | 14864 ft | 381 kts | 170° |
| 2026-04-16 07:52 | 13.72436 | 120.99161 | 14866 ft | 381 kts | 170° |
| 2026-04-16 07:52 | 13.70697 | 120.99453 | 14869 ft | 381 kts | 170° |
| 2026-04-16 07:52 | 13.68071 | 120.99894 | 14869 ft | 381 kts | 170° |
| 2026-04-16 07:52 | 13.65449 | 121.00334 | 14873 ft | 381 kts | 170° |
| 2026-04-16 07:53 | 13.62831 | 121.00773 | 14870 ft | 381 kts | 170° |
| 2026-04-16 07:53 | 13.60210 | 121.01214 | 14871 ft | 381 kts | 170° |
| 2026-04-16 07:53 | 13.57590 | 121.01654 | 14876 ft | 381 kts | 170° |
| 2026-04-16 07:53 | 13.54999 | 121.02203 | 14873 ft | 381 kts | 161° |
| 2026-04-16 07:54 | 13.52495 | 121.03084 | 14941 ft | 381 kts | 161° |
| 2026-04-16 07:54 | 13.50035 | 121.04050 | 14907 ft | 377 kts | 148° |
| 2026-04-16 07:54 | 13.48062 | 121.05785 | 14888 ft | 371 kts | 127° |
| 2026-04-16 07:54 | 13.46302 | 121.07738 | 15017 ft | 378 kts | 140° |
| 2026-04-16 07:55 | 13.43950 | 121.08964 | 15442 ft | 383 kts | 162° |
| 2026-04-16 07:55 | 13.41321 | 121.09250 | 15830 ft | 389 kts | 183° |
| 2026-04-16 07:55 | 13.38644 | 121.08779 | 16199 ft | 392 kts | 188° |
| 2026-04-16 07:55 | 13.35957 | 121.08264 | 16560 ft | 395 kts | 192° |
| 2026-04-16 07:56 | 13.33328 | 121.07424 | 16951 ft | 398 kts | 201° |
| 2026-04-16 07:56 | 13.30790 | 121.06265 | 17337 ft | 400 kts | 205° |
| 2026-04-16 07:56 | 13.28255 | 121.05068 | 17720 ft | 402 kts | 202° |
| 2026-04-16 07:56 | 13.25608 | 121.04116 | 18098 ft | 404 kts | 194° |
| 2026-04-16 07:57 | 13.22835 | 121.03631 | 18444 ft | 405 kts | 185° |
| 2026-04-16 07:57 | 13.20015 | 121.03420 | 18795 ft | 406 kts | 181° |
| 2026-04-16 07:57 | 13.17188 | 121.03366 | 19127 ft | 407 kts | 179° |
| 2026-04-16 07:57 | 13.14348 | 121.03397 | 19460 ft | 408 kts | 178° |
| 2026-04-16 07:58 | 13.11540 | 121.03469 | 19781 ft | 410 kts | 178° |
| 2026-04-16 07:58 | 13.08674 | 121.03541 | 20106 ft | 411 kts | 178° |
| 2026-04-16 07:58 | 13.05803 | 121.03599 | 20412 ft | 414 kts | 178° |
| 2026-04-16 07:58 | 13.02913 | 121.03643 | 20730 ft | 415 kts | 178° |
| 2026-04-16 07:59 | 13.00017 | 121.03678 | 21057 ft | 417 kts | 179° |
| 2026-04-16 07:59 | 12.97104 | 121.03706 | 21363 ft | 418 kts | 179° |
| 2026-04-16 07:59 | 12.94187 | 121.03732 | 21698 ft | 420 kts | 179° |
| 2026-04-16 07:59 | 12.91266 | 121.03759 | 22028 ft | 421 kts | 179° |
| 2026-04-16 08:00 | 12.88337 | 121.03786 | 22332 ft | 422 kts | 179° |
| 2026-04-16 08:00 | 12.85394 | 121.03813 | 22654 ft | 424 kts | 179° |
| 2026-04-16 08:00 | 12.82436 | 121.03842 | 22983 ft | 425 kts | 179° |
| 2026-04-16 08:00 | 12.79511 | 121.03871 | 23301 ft | 426 kts | 179° |
| 2026-04-16 08:01 | 12.76543 | 121.03901 | 23596 ft | 427 kts | 179° |
| 2026-04-16 08:01 | 12.73560 | 121.03931 | 23837 ft | 428 kts | 179° |
| 2026-04-16 08:01 | 12.70575 | 121.03962 | 24075 ft | 430 kts | 179° |
| 2026-04-16 08:01 | 12.67568 | 121.03992 | 24313 ft | 432 kts | 179° |
| 2026-04-16 08:02 | 12.64561 | 121.04023 | 24564 ft | 433 kts | 179° |
| 2026-04-16 08:02 | 12.58508 | 121.04084 | 25041 ft | 436 kts | 179° |
| 2026-04-16 08:02 | 12.55467 | 121.04114 | 25283 ft | 437 kts | 179° |
| 2026-04-16 08:03 | 12.52416 | 121.04144 | 25522 ft | 439 kts | 179° |
| 2026-04-16 08:03 | 12.49352 | 121.04174 | 25770 ft | 440 kts | 179° |
| 2026-04-16 08:03 | 12.46319 | 121.04204 | 26029 ft | 442 kts | 179° |
| 2026-04-16 08:03 | 12.43238 | 121.04238 | 26279 ft | 443 kts | 179° |
| 2026-04-16 08:04 | 12.40160 | 121.04504 | 26514 ft | 445 kts | 171° |
| 2026-04-16 08:04 | 12.37144 | 121.05259 | 26777 ft | 446 kts | 161° |
| 2026-04-16 08:04 | 12.34309 | 121.06552 | 27026 ft | 448 kts | 150° |
| 2026-04-16 08:04 | 12.31753 | 121.08371 | 27290 ft | 449 kts | 140° |
| 2026-04-16 08:05 | 12.29407 | 121.10459 | 27550 ft | 451 kts | 137° |
| 2026-04-16 08:05 | 12.27096 | 121.12661 | 27816 ft | 452 kts | 136° |
| 2026-04-16 08:05 | 12.24818 | 121.14891 | 28084 ft | 454 kts | 136° |
| 2026-04-16 08:05 | 12.22531 | 121.17138 | 28348 ft | 456 kts | 136° |
| 2026-04-16 08:06 | 12.20262 | 121.19354 | 28614 ft | 458 kts | 136° |
| 2026-04-16 08:06 | 12.17945 | 121.21598 | 28877 ft | 460 kts | 136° |
| 2026-04-16 08:06 | 12.15613 | 121.23841 | 29150 ft | 461 kts | 137° |
| 2026-04-16 08:06 | 12.13262 | 121.26092 | 29421 ft | 463 kts | 137° |
| 2026-04-16 08:07 | 12.10900 | 121.28347 | 29701 ft | 465 kts | 137° |
| 2026-04-16 08:07 | 12.08528 | 121.30610 | 29963 ft | 467 kts | 137° |
| 2026-04-16 08:07 | 12.06150 | 121.32879 | 30203 ft | 469 kts | 137° |
| 2026-04-16 08:07 | 12.03762 | 121.35158 | 30457 ft | 471 kts | 137° |
| 2026-04-16 08:08 | 12.01364 | 121.37445 | 30724 ft | 472 kts | 137° |
| 2026-04-16 08:08 | 11.98960 | 121.39739 | 30994 ft | 474 kts | 137° |
| 2026-04-16 08:08 | 11.96544 | 121.42044 | 31281 ft | 475 kts | 137° |
| 2026-04-16 08:08 | 11.94122 | 121.44353 | 31552 ft | 477 kts | 137° |
| 2026-04-16 08:09 | 11.91688 | 121.46673 | 31820 ft | 478 kts | 137° |
| 2026-04-16 08:09 | 11.89281 | 121.48969 | 32075 ft | 480 kts | 137° |
| 2026-04-16 08:09 | 11.86837 | 121.51297 | 32323 ft | 482 kts | 137° |
| 2026-04-16 08:09 | 11.84375 | 121.53643 | 32590 ft | 483 kts | 137° |
| 2026-04-16 08:10 | 11.81917 | 121.55985 | 32846 ft | 485 kts | 137° |
| 2026-04-16 08:10 | 11.79447 | 121.58338 | 33097 ft | 486 kts | 137° |
| 2026-04-16 08:10 | 11.76969 | 121.60697 | 33341 ft | 487 kts | 137° |
| 2026-04-16 08:10 | 11.74560 | 121.62989 | 33578 ft | 489 kts | 137° |
| 2026-04-16 08:11 | 11.72071 | 121.65357 | 33809 ft | 491 kts | 137° |
| 2026-04-16 08:11 | 11.69566 | 121.67740 | 34005 ft | 493 kts | 137° |
| 2026-04-16 08:11 | 11.67081 | 121.70104 | 34190 ft | 495 kts | 137° |
| 2026-04-16 08:11 | 11.64551 | 121.72509 | 34364 ft | 497 kts | 137° |
| 2026-04-16 08:12 | 11.62023 | 121.74912 | 34632 ft | 497 kts | 137° |
| 2026-04-16 08:12 | 11.59489 | 121.77320 | 34918 ft | 496 kts | 137° |
| 2026-04-16 08:12 | 11.56987 | 121.79698 | 35191 ft | 497 kts | 137° |
| 2026-04-16 08:12 | 11.54457 | 121.82101 | 35478 ft | 497 kts | 137° |
| 2026-04-16 08:13 | 11.51930 | 121.84501 | 35753 ft | 497 kts | 137° |
| 2026-04-16 08:13 | 11.49405 | 121.86899 | 36028 ft | 497 kts | 137° |
| 2026-04-16 08:13 | 11.46891 | 121.89286 | 36308 ft | 497 kts | 137° |
| 2026-04-16 08:13 | 11.44342 | 121.91704 | 36586 ft | 498 kts | 137° |
| 2026-04-16 08:14 | 11.41801 | 121.94114 | 36868 ft | 498 kts | 137° |
| 2026-04-16 08:14 | 11.39262 | 121.96522 | 37179 ft | 498 kts | 137° |
| 2026-04-16 08:14 | 11.36756 | 121.98898 | 37454 ft | 498 kts | 137° |
| 2026-04-16 08:14 | 11.34214 | 122.01307 | 37729 ft | 499 kts | 137° |
| 2026-04-16 08:15 | 11.31669 | 122.03719 | 38040 ft | 499 kts | 137° |
| 2026-04-16 08:15 | 11.29128 | 122.06125 | 38349 ft | 498 kts | 137° |
| 2026-04-16 08:15 | 11.26588 | 122.08532 | 38648 ft | 498 kts | 137° |
| 2026-04-16 08:15 | 11.24047 | 122.10938 | 38845 ft | 499 kts | 137° |
| 2026-04-16 08:16 | 11.18961 | 122.15753 | 38888 ft | 499 kts | 137° |
| 2026-04-16 08:16 | 11.13856 | 122.20582 | 38884 ft | 500 kts | 137° |
| 2026-04-16 08:17 | 11.08817 | 122.25348 | 38880 ft | 499 kts | 137° |
| 2026-04-16 08:17 | 11.03723 | 122.30168 | 38879 ft | 499 kts | 137° |
| 2026-04-16 08:19 | 10.83127 | 122.49086 | 38859 ft | 498 kts | 148° |
| 2026-04-16 08:20 | 10.77055 | 122.52344 | 38854 ft | 497 kts | 155° |
| 2026-04-16 08:20 | 10.70770 | 122.55316 | 38854 ft | 497 kts | 155° |
| 2026-04-16 08:21 | 10.64488 | 122.58241 | 38853 ft | 496 kts | 155° |
| 2026-04-16 08:21 | 10.58215 | 122.61185 | 38854 ft | 496 kts | 155° |
| 2026-04-16 08:22 | 10.51954 | 122.64143 | 38851 ft | 496 kts | 155° |
| 2026-04-16 08:22 | 10.45736 | 122.67082 | 38850 ft | 495 kts | 155° |
| 2026-04-16 08:23 | 10.39467 | 122.70044 | 38851 ft | 495 kts | 155° |
| 2026-04-16 08:23 | 10.33218 | 122.73002 | 38849 ft | 495 kts | 155° |
| 2026-04-16 08:24 | 10.27001 | 122.75931 | 38853 ft | 495 kts | 155° |
| 2026-04-16 08:24 | 10.20743 | 122.78871 | 38855 ft | 495 kts | 155° |
| 2026-04-16 08:25 | 10.17616 | 122.80345 | 38692 ft | 495 kts | 155° |
| 2026-04-16 08:25 | 10.14490 | 122.81823 | 38033 ft | 496 kts | 155° |
| 2026-04-16 08:25 | 10.11347 | 122.83308 | 37193 ft | 499 kts | 155° |
| 2026-04-16 08:25 | 10.08195 | 122.84793 | 36445 ft | 499 kts | 155° |
| 2026-04-16 08:26 | 10.05051 | 122.86271 | 36012 ft | 493 kts | 155° |
| 2026-04-16 08:26 | 10.01963 | 122.87723 | 35771 ft | 484 kts | 155° |
| 2026-04-16 08:26 | 9.98953 | 122.89138 | 35815 ft | 471 kts | 155° |
| 2026-04-16 08:26 | 9.95985 | 122.90533 | 35858 ft | 469 kts | 155° |
| 2026-04-16 08:27 | 9.90059 | 122.93320 | 35865 ft | 470 kts | 155° |
| 2026-04-16 08:27 | 9.84158 | 122.96095 | 35864 ft | 470 kts | 155° |
| 2026-04-16 08:28 | 9.78215 | 122.98891 | 35866 ft | 470 kts | 155° |
| 2026-04-16 08:28 | 9.72270 | 123.01692 | 35865 ft | 470 kts | 155° |
| 2026-04-16 08:29 | 9.66365 | 123.04463 | 35868 ft | 470 kts | 155° |
| 2026-04-16 08:29 | 9.60424 | 123.07250 | 35864 ft | 470 kts | 155° |
| 2026-04-16 08:30 | 9.54476 | 123.10043 | 35863 ft | 470 kts | 155° |
| 2026-04-16 08:30 | 9.48574 | 123.12814 | 35865 ft | 470 kts | 155° |
| 2026-04-16 08:31 | 9.42630 | 123.15603 | 35866 ft | 470 kts | 155° |
| 2026-04-16 08:31 | 9.36685 | 123.18392 | 35870 ft | 470 kts | 155° |
| 2026-04-16 08:32 | 9.30775 | 123.21163 | 35864 ft | 470 kts | 155° |
| 2026-04-16 08:32 | 9.24858 | 123.23937 | 35866 ft | 470 kts | 155° |
| 2026-04-16 08:33 | 9.18920 | 123.26719 | 35864 ft | 470 kts | 155° |
| 2026-04-16 08:33 | 9.12984 | 123.29500 | 35864 ft | 470 kts | 155° |
| 2026-04-16 08:34 | 9.07052 | 123.32280 | 35862 ft | 469 kts | 155° |
| 2026-04-16 08:34 | 9.01115 | 123.35058 | 35862 ft | 469 kts | 155° |
| 2026-04-16 08:35 | 8.95218 | 123.37817 | 35864 ft | 469 kts | 155° |
| 2026-04-16 08:35 | 8.89283 | 123.40593 | 35861 ft | 469 kts | 154° |
| 2026-04-16 08:36 | 8.83356 | 123.43365 | 35858 ft | 469 kts | 154° |
| 2026-04-16 08:36 | 8.77431 | 123.46135 | 35860 ft | 469 kts | 154° |
| 2026-04-16 08:37 | 8.72532 | 123.48415 | 35866 ft | 468 kts | 155° |
| 2026-04-16 08:37 | 8.66600 | 123.51185 | 35864 ft | 468 kts | 154° |
| 2026-04-16 08:38 | 8.60679 | 123.53958 | 35868 ft | 468 kts | 154° |
| 2026-04-16 08:38 | 8.54800 | 123.56707 | 35873 ft | 468 kts | 154° |
| 2026-04-16 08:39 | 8.48871 | 123.59475 | 35876 ft | 468 kts | 154° |
| 2026-04-16 08:39 | 8.42945 | 123.62239 | 35876 ft | 468 kts | 154° |
| 2026-04-16 08:40 | 8.37020 | 123.65000 | 35882 ft | 469 kts | 154° |
| 2026-04-16 08:40 | 8.31123 | 123.67730 | 35886 ft | 469 kts | 155° |
| 2026-04-16 08:41 | 8.25182 | 123.70472 | 35886 ft | 468 kts | 155° |
| 2026-04-16 08:41 | 8.19267 | 123.73232 | 35888 ft | 468 kts | 154° |
| 2026-04-16 08:42 | 8.13344 | 123.76022 | 35887 ft | 468 kts | 154° |
| 2026-04-16 08:42 | 8.07464 | 123.78774 | 35884 ft | 468 kts | 155° |
| 2026-04-16 08:43 | 8.01544 | 123.81531 | 35886 ft | 468 kts | 155° |
| 2026-04-16 08:43 | 7.95634 | 123.84280 | 35882 ft | 468 kts | 155° |
| 2026-04-16 08:44 | 7.89708 | 123.87036 | 35883 ft | 468 kts | 155° |
| 2026-04-16 08:44 | 7.83792 | 123.89787 | 35884 ft | 468 kts | 155° |
| 2026-04-16 08:45 | 7.77846 | 123.92551 | 35887 ft | 482 kts | 155° |
| 2026-04-16 08:45 | 7.71639 | 123.95437 | 35674 ft | 498 kts | 155° |
| 2026-04-16 08:46 | 7.65315 | 123.98374 | 35733 ft | 501 kts | 155° |
| 2026-04-16 08:46 | 7.62163 | 123.99837 | 35231 ft | 496 kts | 155° |
| 2026-04-16 08:46 | 7.59009 | 124.01302 | 34341 ft | 500 kts | 154° |
| 2026-04-16 08:47 | 7.55872 | 124.02758 | 33414 ft | 504 kts | 154° |
| 2026-04-16 08:47 | 7.52673 | 124.04245 | 32450 ft | 507 kts | 155° |
| 2026-04-16 08:47 | 7.49451 | 124.05744 | 31469 ft | 510 kts | 155° |
| 2026-04-16 08:47 | 7.46221 | 124.07245 | 30609 ft | 511 kts | 155° |
| 2026-04-16 08:48 | 7.42986 | 124.08747 | 29811 ft | 510 kts | 156° |
| 2026-04-16 08:48 | 7.39854 | 124.10201 | 28993 ft | 508 kts | 156° |
| 2026-04-16 08:48 | 7.36654 | 124.11684 | 28269 ft | 504 kts | 156° |
| 2026-04-16 08:48 | 7.33488 | 124.13152 | 27595 ft | 499 kts | 156° |
| 2026-04-16 08:49 | 7.30338 | 124.14613 | 26931 ft | 494 kts | 156° |
| 2026-04-16 08:49 | 7.27264 | 124.16038 | 26298 ft | 489 kts | 156° |
| 2026-04-16 08:49 | 7.24177 | 124.17467 | 25662 ft | 484 kts | 156° |
| 2026-04-16 08:49 | 7.21166 | 124.18861 | 24784 ft | 466 kts | 156° |
| 2026-04-16 08:50 | 7.18225 | 124.20238 | 23295 ft | 459 kts | 154° |
| 2026-04-16 08:50 | 7.15545 | 124.21961 | 21596 ft | 455 kts | 144° |
| 2026-04-16 08:50 | 7.13096 | 124.23877 | 20227 ft | 446 kts | 142° |
| 2026-04-16 08:50 | 7.10703 | 124.25796 | 18892 ft | 434 kts | 142° |
| 2026-04-16 08:51 | 7.08372 | 124.27675 | 17539 ft | 423 kts | 141° |
| 2026-04-16 08:51 | 7.06130 | 124.29487 | 16589 ft | 402 kts | 141° |
| 2026-04-16 08:51 | 7.04015 | 124.31207 | 16097 ft | 382 kts | 140° |
| 2026-04-16 08:51 | 7.01952 | 124.32890 | 15897 ft | 384 kts | 140° |
| 2026-04-16 08:52 | 6.99870 | 124.34583 | 15855 ft | 384 kts | 140° |
| 2026-04-16 08:52 | 6.97805 | 124.36260 | 15858 ft | 384 kts | 141° |
| 2026-04-16 08:52 | 6.95721 | 124.37951 | 15861 ft | 383 kts | 141° |
| 2026-04-16 08:52 | 6.93644 | 124.39635 | 15859 ft | 383 kts | 141° |
| 2026-04-16 08:53 | 6.91569 | 124.41317 | 15856 ft | 383 kts | 141° |
| 2026-04-16 08:53 | 6.89493 | 124.42999 | 15856 ft | 383 kts | 141° |
| 2026-04-16 08:53 | 6.87408 | 124.44684 | 15732 ft | 386 kts | 141° |
| 2026-04-16 08:53 | 6.85332 | 124.46365 | 15494 ft | 388 kts | 141° |
| 2026-04-16 08:54 | 6.83233 | 124.48066 | 15257 ft | 386 kts | 141° |
| 2026-04-16 08:54 | 6.81158 | 124.49746 | 15022 ft | 382 kts | 141° |
| 2026-04-16 08:54 | 6.79068 | 124.51435 | 14787 ft | 386 kts | 141° |
| 2026-04-16 08:54 | 6.76974 | 124.53123 | 14545 ft | 383 kts | 141° |
| 2026-04-16 08:55 | 6.74905 | 124.54793 | 14328 ft | 380 kts | 141° |
| 2026-04-16 08:55 | 6.72864 | 124.56441 | 13946 ft | 372 kts | 140° |
| 2026-04-16 08:55 | 6.70882 | 124.58043 | 13421 ft | 368 kts | 140° |
| 2026-04-16 08:55 | 6.68895 | 124.59651 | 12861 ft | 365 kts | 140° |
| 2026-04-16 08:56 | 6.66932 | 124.61241 | 12402 ft | 358 kts | 140° |
| 2026-04-16 08:56 | 6.64987 | 124.62782 | 11904 ft | 354 kts | 142° |
| 2026-04-16 08:56 | 6.63022 | 124.64256 | 11407 ft | 350 kts | 142° |
| 2026-04-16 08:56 | 6.61122 | 124.65676 | 11261 ft | 330 kts | 143° |
| 2026-04-16 08:57 | 6.59316 | 124.67026 | 11158 ft | 316 kts | 143° |
| 2026-04-16 08:57 | 6.57616 | 124.68308 | 11065 ft | 296 kts | 142° |
| 2026-04-16 08:57 | 6.56008 | 124.69535 | 10939 ft | 286 kts | 142° |
| 2026-04-16 08:57 | 6.54428 | 124.70740 | 10741 ft | 285 kts | 142° |
| 2026-04-16 08:58 | 6.52865 | 124.71928 | 10402 ft | 284 kts | 142° |
| 2026-04-16 08:58 | 6.51291 | 124.73124 | 10079 ft | 282 kts | 142° |
| 2026-04-16 08:58 | 6.49717 | 124.74318 | 9759 ft | 290 kts | 142° |
| 2026-04-16 08:58 | 6.48067 | 124.75568 | 9584 ft | 300 kts | 142° |
| 2026-04-16 08:59 | 6.46406 | 124.76825 | 9270 ft | 298 kts | 142° |
| 2026-04-16 08:59 | 6.44742 | 124.78086 | 8761 ft | 300 kts | 142° |
| 2026-04-16 08:59 | 6.43071 | 124.79354 | 8354 ft | 298 kts | 142° |
| 2026-04-16 08:59 | 6.41422 | 124.80603 | 8005 ft | 294 kts | 142° |
| 2026-04-16 09:00 | 6.39797 | 124.81838 | 7682 ft | 292 kts | 142° |
| 2026-04-16 09:00 | 6.38472 | 124.83108 | 7359 ft | 291 kts | 126° |
| 2026-04-16 09:00 | 6.37404 | 124.84824 | 7007 ft | 288 kts | 118° |
| 2026-04-16 09:00 | 6.36463 | 124.86556 | 6693 ft | 287 kts | 117° |
| 2026-04-16 09:01 | 6.34534 | 124.90060 | 6001 ft | 285 kts | 118° |
| 2026-04-16 09:01 | 6.33569 | 124.91795 | 5664 ft | 283 kts | 118° |
| 2026-04-16 09:01 | 6.32620 | 124.93502 | 5331 ft | 281 kts | 118° |
| 2026-04-16 09:02 | 6.31665 | 124.95213 | 5000 ft | 278 kts | 119° |
| 2026-04-16 09:02 | 6.30719 | 124.96905 | 4682 ft | 276 kts | 119° |
| 2026-04-16 09:02 | 6.29784 | 124.98578 | 4342 ft | 274 kts | 119° |
| 2026-04-16 09:02 | 6.28852 | 125.00245 | 4023 ft | 272 kts | 120° |
| 2026-04-16 09:03 | 6.27944 | 125.01869 | 3773 ft | 265 kts | 120° |
| 2026-04-16 09:03 | 6.27062 | 125.03448 | 3671 ft | 252 kts | 120° |
| 2026-04-16 09:03 | 6.26224 | 125.04946 | 3587 ft | 238 kts | 120° |
| 2026-04-16 09:03 | 6.25399 | 125.06340 | 3518 ft | 225 kts | 127° |
| 2026-04-16 09:04 | 6.24248 | 125.07303 | 3436 ft | 211 kts | 158° |
| 2026-04-16 09:04 | 6.22866 | 125.07597 | 3360 ft | 200 kts | 178° |
| 2026-04-16 09:04 | 6.21507 | 125.07667 | 3303 ft | 188 kts | 176° |
| 2026-04-16 09:04 | 6.20280 | 125.07823 | 3172 ft | 170 kts | 171° |
| 2026-04-16 09:05 | 6.19132 | 125.07982 | 2896 ft | 163 kts | 173° |
| 2026-04-16 09:05 | 6.18018 | 125.08113 | 2636 ft | 159 kts | 174° |
| 2026-04-16 09:05 | 6.16931 | 125.08246 | 2410 ft | 154 kts | 174° |
| 2026-04-16 09:05 | 6.15900 | 125.08374 | 2213 ft | 145 kts | 173° |
| 2026-04-16 09:06 | 6.14933 | 125.08498 | 2027 ft | 137 kts | 174° |
| 2026-04-16 09:06 | 6.13987 | 125.08612 | 1841 ft | 137 kts | 174° |
| 2026-04-16 09:06 | 6.13051 | 125.08726 | 1663 ft | 136 kts | 173° |
| 2026-04-16 09:06 | 6.12107 | 125.08844 | 1479 ft | 138 kts | 174° |
| 2026-04-16 09:07 | 6.11148 | 125.08961 | 1309 ft | 139 kts | 173° |
| 2026-04-16 09:07 | 6.10211 | 125.09076 | 1118 ft | 136 kts | 171° |
| 2026-04-16 09:07 | 6.09304 | 125.09190 | 947 ft | 130 kts | 172° |
| 2026-04-16 09:07 | 6.08429 | 125.09297 | 784 ft | 124 kts | 173° |
| 2026-04-16 09:08 | 6.07554 | 125.09396 | 635 ft | 124 kts | 170° |
| 2026-04-16 09:08 | 6.06710 | 125.09527 | 522 ft | 122 kts | 178° |
| 2026-04-16 09:08 | 6.05915 | 125.09607 | 520 ft | 97 kts | 176° |
| 2026-04-16 09:08 | 6.05591 | 125.09645 | 519 ft | 8 kts | 173° |
| 2026-04-16 09:09 | 6.05588 | 125.09646 | 519 ft | 2 kts | 173° |
| 2026-04-16 09:09 | 6.05504 | 125.09657 | 520 ft | 21 kts | 173° |
| 2026-04-16 09:09 | 6.05449 | 125.09664 | 520 ft | 12 kts | 172° |
| 2026-04-16 09:09 | 6.05398 | 125.09716 | 521 ft | 0 kts | 92° |
| 2026-04-16 09:10 | 6.05405 | 125.09780 | 521 ft | 18 kts | 84° |
| 2026-04-16 09:10 | 6.05418 | 125.09875 | 520 ft | 7 kts | 73° |
| 2026-04-16 09:10 | 6.05486 | 125.09906 | 520 ft | 16 kts | 356° |
| 2026-04-16 09:10 | 6.05529 | 125.09902 | 520 ft | 6 kts | 352° |
| 2026-04-16 09:11 | 6.05578 | 125.09892 | 520 ft | 3 kts | 353° |
| 2026-04-16 09:11 | 6.05651 | 125.09886 | 520 ft | 17 kts | 356° |
| 2026-04-16 09:11 | 6.05689 | 125.09883 | 520 ft | 3 kts | 358° |
| 2026-04-16 09:11 | 6.05700 | 125.09893 | 520 ft | 1 kts | 58° |
| 2026-04-16 09:12 | 6.05708 | 125.09922 | 520 ft | 3 kts | 76° |
| 2026-04-16 09:12 | 6.05713 | 125.09948 | 520 ft | 1 kts | 82° |
| 2026-04-16 09:12 | 6.05713 | 125.09950 | 520 ft | 0 kts | 82° |
| 2026-04-16 09:28 | 6.05713 | 125.09949 | 520 ft | 0 kts | 82° |